Time;durP1;ratioP1;P1;durP2;ratioP2;P2;SDS_P1;SDS_P2;PMS_P1;PMS_P2;Temp;Humidity;BMP_temperature;BMP_pressure;BME280_temperature;BME280_humidity;BME280_pressure;Samples;Min_cycle;Max_cycle;Signal;HPM_P1;HPM_P2
2023/06/18 00:00:08;;;;;;;13.45;6.38;;;15.90;99.90;;;;;;4955930;28;20046;-79
2023/06/18 00:02:35;;;;;;;10.00;6.10;;;15.90;99.90;;;;;;4956088;28;20035;-79
2023/06/18 00:05:01;;;;;;;11.77;5.68;;;15.90;99.90;;;;;;4956003;28;20023;-79
2023/06/18 00:07:26;;;;;;;13.35;6.20;;;15.70;99.90;;;;;;4956125;29;20467;-77
2023/06/18 00:09:52;;;;;;;12.30;6.25;;;15.90;99.90;;;;;;4955533;28;20039;-77
2023/06/18 00:12:18;;;;;;;13.45;7.07;;;15.90;99.90;;;;;;4956130;28;20031;-77
2023/06/18 00:14:44;;;;;;;9.65;6.05;;;15.90;99.90;;;;;;4955043;28;20418;-76
2023/06/18 00:17:11;;;;;;;10.15;5.80;;;15.90;99.90;;;;;;4955628;28;20031;-75
2023/06/18 00:19:36;;;;;;;12.93;6.30;;;15.90;99.90;;;;;;4955733;28;20027;-77
2023/06/18 00:22:02;;;;;;;11.77;6.63;;;15.90;99.90;;;;;;4955857;28;20057;-76
2023/06/18 00:24:28;;;;;;;9.55;5.75;;;15.90;99.90;;;;;;4955730;28;20448;-76
2023/06/18 00:26:54;;;;;;;10.13;5.43;;;15.80;99.90;;;;;;4955847;28;20031;-76
2023/06/18 00:29:20;;;;;;;13.57;6.38;;;15.70;99.90;;;;;;4956126;28;20066;-77
2023/06/18 00:31:46;;;;;;;12.02;5.97;;;15.70;99.90;;;;;;4955333;29;20024;-76
2023/06/18 00:34:12;;;;;;;10.93;6.20;;;15.70;99.90;;;;;;4955592;28;20045;-76
2023/06/18 00:36:43;;;;;;;16.10;5.55;;;15.70;99.90;;;;;;4938263;29;20152;-79
2023/06/18 00:39:09;;;;;;;13.20;5.82;;;15.70;99.90;;;;;;4938292;29;20034;-78
2023/06/18 00:41:36;;;;;;;8.98;5.80;;;15.70;99.90;;;;;;4955213;28;20082;-78
2023/06/18 00:44:02;;;;;;;11.35;6.00;;;15.60;99.90;;;;;;4954962;28;20086;-78
2023/06/18 00:46:35;;;;;;;18.42;6.45;;;15.70;99.90;;;;;;4954084;28;20035;-78
2023/06/18 00:49:01;;;;;;;14.63;6.45;;;15.60;99.90;;;;;;4955298;28;20031;-78
2023/06/18 00:51:28;;;;;;;10.63;6.18;;;15.60;99.90;;;;;;4962919;28;20038;-78
2023/06/18 00:53:56;;;;;;;12.05;5.90;;;15.60;99.90;;;;;;4955251;29;20023;-78
2023/06/18 00:56:25;;;;;;;7.90;4.80;;;15.50;99.90;;;;;;4954894;28;20030;-78
2023/06/18 00:58:52;;;;;;;10.52;5.47;;;15.50;99.90;;;;;;4937717;29;20111;-78
2023/06/18 01:01:19;;;;;;;6.90;4.45;;;15.50;99.90;;;;;;4954876;28;20049;-78
2023/06/18 01:03:47;;;;;;;10.85;5.57;;;15.40;99.90;;;;;;4954847;28;20095;-78
2023/06/18 01:06:17;;;;;;;12.23;6.25;;;15.40;99.90;;;;;;4953556;29;20039;-78
2023/06/18 01:08:48;;;;;;;13.25;5.82;;;15.50;99.90;;;;;;4954649;28;20472;-78
2023/06/18 01:11:18;;;;;;;10.60;5.47;;;15.50;99.90;;;;;;4937531;28;20047;-78
2023/06/18 01:13:44;;;;;;;11.27;5.40;;;15.30;99.90;;;;;;4937737;29;20046;-78
2023/06/18 01:16:11;;;;;;;11.15;5.00;;;15.30;99.90;;;;;;4960223;28;20118;-78
2023/06/18 01:18:45;;;;;;;9.27;5.30;;;15.30;99.90;;;;;;4953269;29;20027;-78
2023/06/18 01:21:18;;;;;;;10.27;5.60;;;15.30;99.90;;;;;;4937092;28;20054;-78
2023/06/18 01:23:50;;;;;;;;;;;15.30;99.90;;;;;;4955086;28;20110;-77
2023/06/18 01:26:20;;;;;;;13.75;5.90;;;15.20;99.90;;;;;;4954355;28;19916;-78
2023/06/18 01:28:50;;;;;;;12.05;5.93;;;15.30;99.90;;;;;;4954319;29;20032;-77
2023/06/18 01:31:20;;;;;;;8.75;5.28;;;15.30;99.90;;;;;;4954150;29;20038;-77
2023/06/18 01:33:51;;;;;;;11.50;6.15;;;15.50;99.90;;;;;;4954663;29;20090;-77
2023/06/18 01:36:47;;;;;;;10.73;5.53;;;15.30;99.90;;;;;;4954308;28;20474;-77
2023/06/18 01:39:24;;;;;;;9.20;5.65;;;15.30;99.90;;;;;;4895321;29;20433;-77
2023/06/18 01:41:57;;;;;;;7.22;5.13;;;15.30;99.90;;;;;;4894994;29;20463;-77
2023/06/18 01:44:26;;;;;;;9.57;5.05;;;15.30;99.90;;;;;;4877736;29;20089;-77
2023/06/18 01:46:54;;;;;;;10.05;5.18;;;15.30;99.90;;;;;;4895433;29;20032;-77
2023/06/18 01:49:21;;;;;;;11.25;6.18;;;15.30;99.90;;;;;;4879363;29;20401;-78
2023/06/18 01:51:50;;;;;;;12.80;5.70;;;15.30;99.90;;;;;;4894779;29;20029;-77
2023/06/18 01:54:17;;;;;;;8.45;4.78;;;15.10;99.90;;;;;;4895325;29;20088;-77
2023/06/18 01:56:44;;;;;;;8.38;5.00;;;15.10;99.90;;;;;;4894760;29;20097;-77
2023/06/18 01:59:11;;;;;;;12.80;6.05;;;15.10;99.90;;;;;;4879562;29;20374;-77
2023/06/18 02:01:40;;;;;;;8.68;5.88;;;15.10;99.90;;;;;;4879120;29;20071;-77
2023/06/18 02:04:06;;;;;;;8.60;4.88;;;15.10;99.90;;;;;;4895147;29;20057;-78
2023/06/18 02:06:32;;;;;;;8.35;4.60;;;15.10;99.90;;;;;;4878936;29;20465;-77
2023/06/18 02:08:58;;;;;;;9.63;4.93;;;15.10;99.90;;;;;;4894513;29;20044;-77
2023/06/18 02:11:24;;;;;;;10.15;4.63;;;15.10;99.90;;;;;;4894789;29;20450;-78
2023/06/18 02:13:50;;;;;;;10.88;5.93;;;15.10;99.90;;;;;;4894814;29;20040;-77
2023/06/18 02:16:16;;;;;;;7.82;5.05;;;15.10;99.90;;;;;;4920103;29;20088;-78
2023/06/18 02:18:42;;;;;;;11.40;5.22;;;15.10;99.90;;;;;;4952602;28;20027;-77
2023/06/18 02:21:08;;;;;;;7.93;5.13;;;15.00;99.90;;;;;;4936476;28;20040;-77
2023/06/18 02:23:34;;;;;;;12.23;5.13;;;15.10;99.90;;;;;;4953851;28;20031;-77
2023/06/18 02:26:01;;;;;;;15.05;5.80;;;15.00;99.90;;;;;;4952467;28;20027;-78
2023/06/18 02:28:27;;;;;;;12.52;5.70;;;15.00;99.90;;;;;;4940755;28;20102;-77
2023/06/18 02:30:54;;;;;;;8.30;5.18;;;14.90;99.90;;;;;;4936144;29;20127;-78
2023/06/18 02:33:22;;;;;;;9.48;4.75;;;15.00;99.90;;;;;;4936117;28;20015;-78
2023/06/18 02:35:49;;;;;;;8.35;4.97;;;15.00;99.90;;;;;;4951480;28;20523;-78
2023/06/18 02:38:14;;;;;;;11.70;5.72;;;14.90;99.90;;;;;;4936711;29;20447;-78
2023/06/18 02:40:40;;;;;;;6.72;4.38;;;14.90;99.90;;;;;;4936278;28;20039;-78
2023/06/18 02:43:08;;;;;;;8.85;5.25;;;14.80;99.90;;;;;;4953718;28;20367;-78
2023/06/18 02:45:34;;;;;;;12.10;5.13;;;14.80;99.90;;;;;;4936035;29;20031;-77
2023/06/18 02:48:00;;;;;;;9.50;4.85;;;14.80;99.90;;;;;;4936408;29;20030;-77
2023/06/18 02:50:26;;;;;;;9.65;5.13;;;14.80;99.90;;;;;;4932811;29;20387;-77
2023/06/18 02:52:52;;;;;;;9.85;5.32;;;14.80;99.90;;;;;;4935803;29;20035;-78
2023/06/18 02:55:18;;;;;;;9.93;4.97;;;14.80;99.90;;;;;;4953586;28;20024;-75
2023/06/18 02:57:46;;;;;;;10.18;5.03;;;14.80;99.90;;;;;;4953510;28;20028;-77
2023/06/18 03:00:13;;;;;;;10.00;4.60;;;14.80;99.90;;;;;;4936184;29;20431;-77
2023/06/18 03:02:42;;;;;;;9.57;5.22;;;14.70;99.90;;;;;;4940256;28;20443;-78
2023/06/18 03:05:13;;;;;;;8.82;5.00;;;14.80;99.90;;;;;;4953370;28;20479;-77
2023/06/18 03:07:39;;;;;;;11.25;5.13;;;14.80;99.90;;;;;;4951705;28;20077;-77
2023/06/18 03:10:06;;;;;;;9.38;5.15;;;14.80;99.90;;;;;;4953525;28;20395;-78
2023/06/18 03:12:33;;;;;;;9.13;5.25;;;14.80;99.90;;;;;;4952271;29;20118;-77
2023/06/18 03:15:05;;;;;;;11.88;5.18;;;14.90;99.90;;;;;;4936668;28;20023;-78
2023/06/18 03:17:31;;;;;;;11.98;5.10;;;15.00;99.90;;;;;;4936245;29;20039;-78
2023/06/18 03:19:57;;;;;;;11.77;5.38;;;15.00;99.90;;;;;;4920792;28;20067;-78
2023/06/18 03:22:23;;;;;;;12.20;5.78;;;15.10;99.90;;;;;;4955668;28;20074;-78
2023/06/18 03:24:51;;;;;;;8.98;5.03;;;15.20;99.90;;;;;;4939546;29;20547;-78
2023/06/18 03:27:16;;;;;;;11.55;5.90;;;15.20;99.90;;;;;;4957073;28;20038;-77
2023/06/18 03:29:43;;;;;;;7.85;5.38;;;15.30;99.90;;;;;;4939536;29;20031;-77
2023/06/18 03:32:11;;;;;;;11.00;4.93;;;15.40;99.90;;;;;;4939897;29;20038;-77
2023/06/18 03:34:42;;;;;;;8.88;5.07;;;15.40;99.90;;;;;;4956470;28;20023;-77
2023/06/18 03:37:08;;;;;;;8.20;4.90;;;15.50;99.90;;;;;;4939339;29;20038;-77
2023/06/18 03:39:34;;;;;;;9.75;4.60;;;15.50;99.90;;;;;;4939285;29;20027;-77
2023/06/18 03:42:01;;;;;;;7.25;4.65;;;15.70;99.90;;;;;;4939464;29;20045;-77
2023/06/18 03:44:26;;;;;;;6.53;4.13;;;16.70;99.90;;;;;;4956626;28;20023;-77
2023/06/18 03:46:53;;;;;;;8.07;4.20;;;17.90;99.90;;;;;;4955326;29;20082;-77
2023/06/18 03:49:19;;;;;;;8.50;4.00;;;18.90;99.90;;;;;;4936158;29;20039;-78
2023/06/18 03:51:45;;;;;;;10.05;3.88;;;19.70;99.90;;;;;;4929181;29;20028;-78
2023/06/18 03:54:12;;;;;;;7.65;4.35;;;20.50;99.90;;;;;;4943844;28;20034;-78
2023/06/18 03:56:37;;;;;;;7.53;4.38;;;20.90;99.90;;;;;;4956364;28;20022;-76
2023/06/18 03:59:06;;;;;;;6.95;3.83;;;21.90;99.90;;;;;;4956544;28;20039;-75
2023/06/18 04:01:32;;;;;;;7.15;3.88;;;22.30;99.70;;;;;;4956339;28;20066;-77
2023/06/18 04:03:57;;;;;;;12.63;4.15;;;22.90;97.80;;;;;;4955990;29;20049;-76
2023/06/18 04:06:24;;;;;;;8.93;3.97;;;23.30;96.00;;;;;;4939003;28;20035;-77
2023/06/18 04:08:50;;;;;;;7.03;3.67;;;23.70;94.30;;;;;;4938595;29;20082;-76
2023/06/18 04:11:15;;;;;;;6.47;4.20;;;23.90;95.30;;;;;;4938860;29;20070;-77
2023/06/18 04:13:42;;;;;;;10.20;3.63;;;;;;;;;;4954828;28;20051;-77
2023/06/18 04:16:11;;;;;;;9.68;5.50;;;23.70;99.90;;;;;;4938841;29;20039;-77
2023/06/18 04:18:37;;;;;;;8.90;4.07;;;;;;;;;;4955956;28;20020;-76
2023/06/18 04:21:04;;;;;;;9.60;4.05;;;23.50;92.40;;;;;;4955756;28;20122;-76
2023/06/18 04:23:33;;;;;;;8.05;4.25;;;;;;;;;;4938824;29;20023;-76
2023/06/18 04:26:00;;;;;;;9.57;4.32;;;;;;;;;;4954296;28;20118;-76
2023/06/18 04:28:26;;;;;;;9.15;4.18;;;25.20;90.80;;;;;;4954463;29;20023;-77
2023/06/18 04:30:52;;;;;;;8.30;3.88;;;25.20;90.40;;;;;;4938118;28;20090;-77
2023/06/18 04:33:19;;;;;;;6.82;3.78;;;24.60;90.80;;;;;;4938839;29;20023;-78
2023/06/18 04:35:46;;;;;;;7.88;4.15;;;24.70;90.50;;;;;;4953973;28;20150;-77
2023/06/18 04:38:13;;;;;;;8.38;4.15;;;26.20;88.60;;;;;;4938466;29;20114;-77
2023/06/18 04:40:41;;;;;;;8.18;3.42;;;25.90;88.50;;;;;;4938043;28;20050;-77
2023/06/18 04:43:07;;;;;;;6.10;3.92;;;26.30;87.50;;;;;;4954177;29;20023;-78
2023/06/18 04:45:37;;;;;;;5.93;3.50;;;26.30;87.10;;;;;;4953915;28;20034;-77
2023/06/18 04:48:04;;;;;;;8.52;4.03;;;25.90;86.70;;;;;;4938550;29;20034;-76
2023/06/18 04:50:31;;;;;;;5.88;3.45;;;26.70;86.30;;;;;;4938344;28;20515;-77
2023/06/18 04:52:57;;;;;;;10.35;4.05;;;26.40;86.70;;;;;;4937872;29;20114;-77
2023/06/18 04:55:23;;;;;;;7.25;3.92;;;25.20;88.20;;;;;;4938092;28;20062;-77
2023/06/18 04:57:52;;;;;;;8.82;3.80;;;25.30;90.30;;;;;;4937865;29;20063;-78
2023/06/18 05:00:19;;;;;;;8.27;4.03;;;23.70;91.40;;;;;;4955351;28;20050;-77
2023/06/18 05:02:48;;;;;;;9.32;4.03;;;23.10;93.30;;;;;;4937550;28;20035;-76
2023/06/18 05:05:15;;;;;;;9.55;4.38;;;22.60;95.00;;;;;;4955074;28;20051;-76
2023/06/18 05:07:42;;;;;;;9.07;3.95;;;22.60;97.10;;;;;;4937501;29;20058;-77
2023/06/18 05:10:09;;;;;;;6.25;3.75;;;22.60;98.20;;;;;;4937585;29;20412;-76
2023/06/18 05:12:35;;;;;;;7.63;4.85;;;22.20;99.80;;;;;;4938041;29;20046;-77
2023/06/18 05:15:01;;;;;;;8.48;4.07;;;21.90;99.90;;;;;;4937668;29;20023;-76
2023/06/18 05:17:27;;;;;;;9.63;4.85;;;22.00;99.90;;;;;;4955067;28;20053;-75
2023/06/18 05:19:54;;;;;;;10.60;4.32;;;22.30;99.90;;;;;;4921662;29;20030;-76
2023/06/18 05:22:22;;;;;;;8.13;4.38;;;21.70;99.90;;;;;;4932133;29;20067;-76
2023/06/18 05:24:48;;;;;;;8.60;4.55;;;21.50;99.90;;;;;;4947322;28;20078;-77
2023/06/18 05:27:14;;;;;;;8.48;4.20;;;21.50;99.90;;;;;;4953452;28;20046;-75
2023/06/18 05:29:40;;;;;;;17.23;4.78;;;21.20;99.90;;;;;;4936726;29;20027;-77
2023/06/18 05:32:07;;;;;;;10.68;4.93;;;21.70;99.90;;;;;;4939216;29;20035;-76
2023/06/18 05:34:34;;;;;;;7.55;4.55;;;21.70;99.90;;;;;;4937510;28;20038;-77
2023/06/18 05:37:00;;;;;;;8.25;3.78;;;21.70;99.90;;;;;;4936804;29;20043;-78
2023/06/18 05:39:26;;;;;;;6.80;4.75;;;21.70;99.90;;;;;;4950192;29;20547;-75
2023/06/18 05:41:52;;;;;;;8.55;4.90;;;21.70;99.90;;;;;;4933501;29;20031;-76
2023/06/18 05:44:19;;;;;;;9.30;5.05;;;21.70;99.90;;;;;;4931332;29;20394;-77
2023/06/18 05:46:46;;;;;;;11.13;6.50;;;21.70;99.90;;;;;;4944583;29;20027;-77
2023/06/18 05:49:11;;;;;;;11.38;5.88;;;21.50;99.90;;;;;;4938194;28;20041;-77
2023/06/18 05:51:38;;;;;;;8.95;4.88;;;21.70;99.90;;;;;;4936489;29;20022;-76
2023/06/18 05:54:06;;;;;;;7.45;4.30;;;21.70;99.90;;;;;;4953159;28;20043;-77
2023/06/18 05:56:32;;;;;;;9.25;5.00;;;21.90;99.90;;;;;;4936941;29;20020;-77
2023/06/18 05:58:58;;;;;;;11.25;4.93;;;22.10;99.90;;;;;;4936857;29;20035;-78
2023/06/18 06:01:33;;;;;;;7.25;4.78;;;22.20;99.90;;;;;;4928895;29;20039;-80
2023/06/18 06:04:00;;;;;;;7.15;4.22;;;21.90;99.90;;;;;;4936364;29;20065;-78
2023/06/18 06:06:27;;;;;;;14.98;6.90;;;22.20;99.90;;;;;;4937079;29;20490;-77
2023/06/18 06:08:54;;;;;;;8.55;4.90;;;22.40;99.90;;;;;;4935801;29;20039;-77
2023/06/18 06:11:20;;;;;;;10.60;4.82;;;22.40;99.90;;;;;;4936874;29;20035;-77
2023/06/18 06:13:46;;;;;;;11.98;4.65;;;22.50;99.90;;;;;;4946167;29;20426;-77
2023/06/18 06:16:13;;;;;;;10.05;5.10;;;22.60;99.90;;;;;;4951501;29;20035;-79
2023/06/18 06:18:40;;;;;;;9.15;5.07;;;22.60;99.90;;;;;;4935864;29;20475;-76
2023/06/18 06:21:05;;;;;;;10.70;5.22;;;22.80;99.90;;;;;;4936212;29;20039;-78
2023/06/18 06:23:31;;;;;;;7.95;4.40;;;22.80;99.90;;;;;;4936593;29;20027;-77
2023/06/18 06:25:58;;;;;;;7.88;4.65;;;23.10;99.90;;;;;;4936209;29;20042;-76
2023/06/18 06:28:25;;;;;;;10.75;4.43;;;23.30;99.90;;;;;;4951691;29;20510;-78
2023/06/18 06:30:51;;;;;;;7.95;4.63;;;23.40;99.90;;;;;;4936444;29;20110;-79
2023/06/18 06:33:16;;;;;;;7.53;5.13;;;23.40;99.90;;;;;;4953862;28;20105;-78
2023/06/18 06:35:43;;;;;;;7.32;5.03;;;23.20;99.90;;;;;;4953801;28;20094;-78
2023/06/18 06:38:12;;;;;;;7.50;4.03;;;23.20;99.90;;;;;;4952412;28;20402;-77
2023/06/18 06:40:38;;;;;;;7.07;4.07;;;;;;;;;;4952659;29;20047;-77
2023/06/18 06:43:05;;;;;;;6.80;4.38;;;23.90;99.90;;;;;;4944877;28;20027;-77
2023/06/18 06:45:38;;;;;;;6.15;3.90;;;23.80;99.90;;;;;;4932892;29;20031;-76
2023/06/18 06:48:04;;;;;;;7.70;4.50;;;24.00;99.90;;;;;;4953448;28;20086;-76
2023/06/18 06:50:37;;;;;;;6.75;4.18;;;23.90;99.80;;;;;;4943020;29;20070;-78
2023/06/18 06:53:11;;;;;;;8.45;4.35;;;24.00;99.00;;;;;;4938042;29;20031;-78
2023/06/18 06:55:38;;;;;;;10.02;5.00;;;24.10;99.90;;;;;;4953638;28;20073;-77
2023/06/18 06:58:04;;;;;;;8.07;5.65;;;24.30;98.60;;;;;;4956397;28;20471;-77
2023/06/18 07:00:30;;;;;;;12.45;5.80;;;24.30;99.60;;;;;;4938489;29;20078;-78
2023/06/18 07:02:56;;;;;;;9.05;5.55;;;24.30;98.80;;;;;;4938191;28;20050;-78
2023/06/18 07:05:22;;;;;;;9.70;6.18;;;24.30;98.60;;;;;;4954935;28;20118;-76
2023/06/18 07:07:48;;;;;;;10.93;5.43;;;24.40;98.10;;;;;;4956313;28;20133;-77
2023/06/18 07:10:13;;;;;;;8.70;4.60;;;24.60;97.00;;;;;;4956600;29;20539;-77
2023/06/18 07:12:39;;;;;;;9.93;4.47;;;24.80;98.80;;;;;;4947960;28;20046;-76
2023/06/18 07:15:06;;;;;;;13.40;5.18;;;24.70;94.30;;;;;;4942978;28;20082;-77
2023/06/18 07:17:31;;;;;;;11.77;6.28;;;24.70;96.50;;;;;;4938113;29;20123;-76
2023/06/18 07:19:57;;;;;;;10.70;4.95;;;24.60;96.10;;;;;;4937567;29;20595;-78
2023/06/18 07:22:23;;;;;;;7.20;4.50;;;24.90;97.00;;;;;;4937195;29;20035;-76
2023/06/18 07:24:49;;;;;;;16.23;4.45;;;24.90;96.20;;;;;;4955165;29;20028;-78
2023/06/18 07:27:15;;;;;;;8.55;4.38;;;24.80;95.30;;;;;;4956386;29;20042;-77
2023/06/18 07:29:41;;;;;;;8.77;4.20;;;24.90;96.90;;;;;;4957017;28;20019;-76
2023/06/18 07:32:06;;;;;;;8.65;4.25;;;24.90;95.10;;;;;;4956495;29;20031;-76
2023/06/18 07:34:32;;;;;;;6.57;4.03;;;24.90;93.90;;;;;;4957072;29;20041;-75
2023/06/18 07:36:58;;;;;;;30.60;12.57;;;24.90;95.20;;;;;;4953573;29;20031;-76
2023/06/18 07:39:25;;;;;;;10.75;5.60;;;25.00;94.80;;;;;;4951498;29;20057;-78
2023/06/18 07:41:51;;;;;;;11.57;5.15;;;25.20;93.30;;;;;;4956221;28;20037;-77
2023/06/18 07:44:17;;;;;;;22.08;8.77;;;25.30;93.30;;;;;;4956533;28;20106;-78
2023/06/18 07:46:44;;;;;;;17.42;7.35;;;25.00;94.90;;;;;;4956382;28;20078;-77
2023/06/18 07:49:10;;;;;;;8.35;4.82;;;25.10;94.70;;;;;;4956217;28;20062;-76
2023/06/18 07:51:35;;;;;;;6.50;3.65;;;25.30;92.30;;;;;;4938756;29;20047;-76
2023/06/18 07:54:01;;;;;;;5.57;3.85;;;25.60;94.30;;;;;;4955761;28;20034;-78
2023/06/18 07:56:27;;;;;;;7.38;3.55;;;25.50;92.30;;;;;;4956244;28;20038;-77
2023/06/18 07:58:53;;;;;;;12.70;4.70;;;25.60;95.00;;;;;;4955395;29;20090;-76
2023/06/18 08:01:19;;;;;;;9.18;5.68;;;25.80;91.80;;;;;;4943697;29;20047;-74
2023/06/18 08:03:45;;;;;;;6.57;3.85;;;25.90;97.00;;;;;;4936463;29;20385;-75
2023/06/18 08:06:11;;;;;;;6.78;3.65;;;25.90;95.90;;;;;;4935373;29;20034;-74
2023/06/18 08:08:37;;;;;;;7.47;3.97;;;26.00;99.50;;;;;;4946708;28;20058;-76
2023/06/18 08:11:03;;;;;;;6.85;4.35;;;25.90;92.50;;;;;;4955024;28;20035;-78
2023/06/18 08:13:29;;;;;;;7.30;3.60;;;25.90;93.20;;;;;;4955666;29;20049;-75
2023/06/18 08:15:56;;;;;;;8.35;4.30;;;26.10;93.00;;;;;;4952700;28;20024;-74
2023/06/18 08:18:22;;;;;;;5.30;3.60;;;26.00;90.40;;;;;;4955866;28;20117;-75
2023/06/18 08:20:47;;;;;;;7.97;4.63;;;26.00;92.10;;;;;;4955446;28;20031;-76
2023/06/18 08:23:15;;;;;;;7.18;3.50;;;26.10;91.80;;;;;;4955381;28;20402;-74
2023/06/18 08:25:41;;;;;;;11.65;3.97;;;26.30;92.50;;;;;;4938716;28;20039;-77
2023/06/18 08:28:07;;;;;;;6.30;3.47;;;26.20;89.70;;;;;;4955882;28;20043;-75
2023/06/18 08:30:32;;;;;;;6.78;4.03;;;26.10;92.00;;;;;;4949623;28;20023;-75
2023/06/18 08:32:58;;;;;;;10.55;5.25;;;26.70;94.10;;;;;;4955107;28;20173;-76
2023/06/18 08:35:24;;;;;;;8.02;4.90;;;26.80;93.40;;;;;;4955263;28;20451;-73
2023/06/18 08:37:50;;;;;;;7.38;3.83;;;26.50;98.00;;;;;;4955144;28;20110;-78
2023/06/18 08:40:20;;;;;;;20.48;10.88;;;26.80;94.30;;;;;;4955005;28;20109;-78
2023/06/18 08:42:46;;;;;;;7.03;3.85;;;27.60;94.90;;;;;;4955060;28;20042;-75
2023/06/18 08:45:12;;;;;;;6.72;4.10;;;26.60;91.50;;;;;;4954025;28;20024;-76
2023/06/18 08:47:40;;;;;;;11.43;5.70;;;26.70;92.70;;;;;;4951550;29;20031;-75
2023/06/18 08:50:07;;;;;;;11.63;4.35;;;26.80;93.00;;;;;;4952174;28;20065;-74
2023/06/18 08:52:34;;;;;;;16.90;8.38;;;26.80;92.50;;;;;;4954839;28;20403;-76
2023/06/18 08:55:07;;;;;;;7.07;4.22;;;26.50;92.10;;;;;;4954181;28;20062;-75
2023/06/18 08:57:43;;;;;;;7.20;3.50;;;26.60;93.40;;;;;;4951530;28;20027;-74
2023/06/18 09:00:09;;;;;;;5.45;2.78;;;26.70;92.60;;;;;;4944216;29;20514;-74
2023/06/18 09:02:35;;;;;;;4.53;3.20;;;26.70;85.80;;;;;;4954973;28;20502;-75
2023/06/18 09:05:04;;;;;;;5.22;3.55;;;26.90;86.30;;;;;;4954273;28;20028;-75
2023/06/18 09:07:31;;;;;;;9.60;3.58;;;26.60;83.30;;;;;;4953141;28;20042;-76
2023/06/18 09:09:57;;;;;;;8.77;3.40;;;26.80;88.90;;;;;;4953352;29;20499;-76
2023/06/18 09:12:23;;;;;;;5.18;2.83;;;26.80;82.10;;;;;;4954841;29;20042;-76
2023/06/18 09:14:49;;;;;;;5.57;3.22;;;26.80;79.50;;;;;;4954598;29;20411;-77
2023/06/18 09:17:16;;;;;;;6.43;3.50;;;26.70;85.30;;;;;;4954025;28;20601;-75
2023/06/18 09:19:43;;;;;;;5.53;3.13;;;26.80;84.30;;;;;;4954052;28;20121;-75
2023/06/18 09:22:16;;;;;;;4.43;2.92;;;26.80;83.40;;;;;;4954005;29;20035;-76
2023/06/18 09:24:46;;;;;;;4.53;2.92;;;26.80;83.10;;;;;;4937191;29;20042;-75
2023/06/18 09:27:12;;;;;;;5.30;2.90;;;26.70;78.60;;;;;;4954357;29;20027;-78
2023/06/18 09:29:41;;;;;;;3.70;2.85;;;26.70;78.50;;;;;;4954460;29;20027;-77
2023/06/18 09:32:08;;;;;;;4.57;3.20;;;26.80;81.60;;;;;;4954381;29;20110;-78
2023/06/18 09:34:34;;;;;;;4.43;2.95;;;26.90;81.70;;;;;;4954640;28;20319;-76
2023/06/18 09:36:59;;;;;;;9.25;4.18;;;27.00;79.40;;;;;;4953855;28;20071;-77
2023/06/18 09:39:26;;;;;;;17.70;3.63;;;27.20;94.80;;;;;;4953412;29;20031;-77
2023/06/18 09:41:53;;;;;;;5.95;3.20;;;27.20;94.20;;;;;;4953929;28;20035;-75
2023/06/18 09:44:21;;;;;;;6.13;3.22;;;27.20;93.90;;;;;;4954064;29;20491;-78
2023/06/18 09:46:59;;;;;;;6.43;3.15;;;27.10;94.70;;;;;;4954414;29;20042;-78
2023/06/18 09:49:27;;;;;;;3.50;2.58;;;27.20;95.40;;;;;;4937192;29;20031;-78
2023/06/18 09:51:54;;;;;;;5.40;3.15;;;26.90;75.70;;;;;;4937218;29;20034;-77
2023/06/18 09:54:21;;;;;;;5.20;2.97;;;26.90;78.10;;;;;;4936785;29;20019;-77
2023/06/18 09:56:57;;;;;;;4.32;3.08;;;27.10;77.00;;;;;;4954271;29;20031;-77
2023/06/18 09:59:24;;;;;;;9.98;3.28;;;26.90;77.50;;;;;;4954356;28;20047;-76
2023/06/18 10:01:50;;;;;;;4.07;2.90;;;27.00;77.10;;;;;;4950712;28;20391;-79
2023/06/18 10:04:17;;;;;;;6.18;3.25;;;26.80;73.50;;;;;;4934852;29;20074;-77
2023/06/18 10:07:02;;;;;;;23.42;3.80;;;26.90;78.60;;;;;;4952723;28;20031;-77
2023/06/18 10:09:32;;;;;;;5.50;3.17;;;26.80;77.70;;;;;;4953750;28;20063;-77
2023/06/18 10:12:00;;;;;;;5.15;3.78;;;26.60;76.10;;;;;;4954204;28;20027;-77
2023/06/18 10:14:28;;;;;;;4.75;3.17;;;26.70;75.70;;;;;;4936358;29;20390;-77
2023/06/18 10:17:20;;;;;;;6.28;3.05;;;26.60;77.30;;;;;;4954454;29;20501;-75
2023/06/18 10:20:08;;;;;;;6.27;3.40;;;26.60;77.10;;;;;;4953915;29;20501;-76
2023/06/18 10:22:42;;;;;;;13.00;3.83;;;26.60;93.50;;;;;;4953645;28;20112;-77
2023/06/18 10:25:08;;;;;;;6.15;3.35;;;26.60;94.80;;;;;;4953394;29;20031;-77
2023/06/18 10:27:35;;;;;;;5.88;3.10;;;26.70;94.20;;;;;;4954115;29;20034;-76
2023/06/18 10:30:01;;;;;;;7.47;3.40;;;26.80;94.10;;;;;;4955802;28;20031;-76
2023/06/18 10:32:30;;;;;;;7.00;4.00;;;26.90;94.60;;;;;;4958029;28;20106;-75
2023/06/18 10:34:58;;;;;;;8.35;3.55;;;26.80;93.80;;;;;;4957372;28;20027;-77
2023/06/18 10:37:26;;;;;;;7.25;3.72;;;26.90;94.90;;;;;;4957556;28;20031;-77
2023/06/18 10:39:53;;;;;;;6.65;3.63;;;26.80;95.20;;;;;;4957302;29;20114;-74
2023/06/18 10:42:20;;;;;;;5.20;3.30;;;26.50;93.40;;;;;;4957548;28;20035;-77
2023/06/18 10:44:49;;;;;;;8.68;4.13;;;26.40;94.50;;;;;;4957366;28;20502;-76
2023/06/18 10:47:27;;;;;;;6.18;3.28;;;26.40;95.20;;;;;;4957510;29;20027;-77
2023/06/18 10:50:05;;;;;;;5.80;3.75;;;26.60;95.40;;;;;;4956976;29;20031;-76
2023/06/18 10:52:33;;;;;;;4.80;3.08;;;26.90;94.70;;;;;;4957107;29;20122;-74
2023/06/18 10:55:10;;;;;;;5.25;3.35;;;26.90;93.20;;;;;;4956590;28;20098;-75
2023/06/18 10:57:46;;;;;;;6.40;3.38;;;27.00;93.40;;;;;;4948767;29;20115;-77
2023/06/18 11:00:29;;;;;;;5.43;3.08;;;26.70;93.40;;;;;;4956867;28;20025;-77
2023/06/18 11:03:07;;;;;;;4.63;3.40;;;26.80;94.20;;;;;;4947299;28;20039;-77
2023/06/18 11:05:34;;;;;;;4.63;3.13;;;27.00;94.70;;;;;;4951466;29;20038;-76
2023/06/18 11:08:04;;;;;;;5.95;3.45;;;27.00;93.10;;;;;;4956336;28;20119;-78
2023/06/18 11:10:35;;;;;;;8.20;3.80;;;26.90;93.80;;;;;;4949737;28;20124;-76
2023/06/18 11:13:06;;;;;;;6.88;3.35;;;27.00;93.00;;;;;;4945244;29;20494;-77
2023/06/18 11:15:34;;;;;;;4.50;3.30;;;27.10;92.90;;;;;;4956851;29;20051;-78
2023/06/18 11:18:03;;;;;;;5.45;3.17;;;27.20;94.40;;;;;;4957358;28;20023;-79
2023/06/18 11:20:35;;;;;;;6.10;3.88;;;27.10;94.90;;;;;;4956648;29;20451;-77
2023/06/18 11:23:01;;;;;;;5.82;3.17;;;27.10;94.20;;;;;;4957136;29;20031;-79
2023/06/18 11:25:28;;;;;;;3.92;2.83;;;27.10;94.10;;;;;;4956270;28;20031;-78
2023/06/18 11:28:01;;;;;;;7.38;3.38;;;27.20;93.50;;;;;;4957063;28;20030;-78
2023/06/18 11:30:31;;;;;;;5.88;3.22;;;27.30;94.40;;;;;;4956493;29;20020;-78
2023/06/18 11:32:57;;;;;;;5.85;3.28;;;27.20;80.90;;;;;;4956969;28;20082;-76
2023/06/18 11:35:30;;;;;;;5.82;3.67;;;27.30;92.70;;;;;;4956552;28;20023;-78
2023/06/18 11:37:56;;;;;;;3.97;2.67;;;27.30;93.50;;;;;;4948477;29;20035;-79
2023/06/18 11:40:22;;;;;;;4.75;3.13;;;27.30;75.10;;;;;;4956347;28;20082;-77
2023/06/18 11:42:50;;;;;;;4.55;3.17;;;27.60;93.40;;;;;;4956254;29;20490;-75
2023/06/18 11:45:16;;;;;;;4.50;3.28;;;27.50;92.30;;;;;;4956724;29;20035;-78
2023/06/18 11:47:50;;;;;;;5.38;3.17;;;27.50;93.40;;;;;;4956136;28;20368;-77
2023/06/18 11:50:19;;;;;;;5.13;3.40;;;27.50;92.50;;;;;;4955733;28;20043;-78
2023/06/18 11:52:45;;;;;;;4.82;3.25;;;27.40;92.90;;;;;;4954218;28;20095;-77
2023/06/18 11:55:11;;;;;;;12.70;3.42;;;27.50;93.20;;;;;;4955937;29;20035;-79
2023/06/18 11:57:37;;;;;;;5.43;3.38;;;27.40;92.30;;;;;;4956594;29;20419;-79
2023/06/18 12:00:08;;;;;;;5.00;2.88;;;27.40;91.50;;;;;;4956254;29;20027;-79
2023/06/18 12:02:39;;;;;;;6.85;3.10;;;27.30;91.40;;;;;;4956280;28;20391;-77
2023/06/18 12:05:06;;;;;;;5.38;2.85;;;27.20;92.70;;;;;;4956369;28;20347;-79
2023/06/18 12:07:32;;;;;;;5.25;3.15;;;27.30;93.20;;;;;;4950852;29;20103;-78
2023/06/18 12:10:05;;;;;;;4.93;3.30;;;27.30;92.00;;;;;;4956035;28;20027;-78
2023/06/18 12:12:38;;;;;;;6.22;3.58;;;27.40;94.00;;;;;;4956090;28;20051;-76
2023/06/18 12:15:25;;;;;;;7.60;3.10;;;27.30;92.80;;;;;;4947821;28;20063;-77
2023/06/18 12:17:59;;;;;;;7.38;3.45;;;27.40;94.10;;;;;;4955916;28;20035;-79
2023/06/18 12:20:28;;;;;;;5.57;3.60;;;27.60;94.10;;;;;;4954198;29;20031;-80
2023/06/18 12:22:55;;;;;;;4.68;2.85;;;27.50;93.60;;;;;;4956018;28;20483;-77
2023/06/18 12:25:22;;;;;;;8.65;5.20;;;27.30;93.90;;;;;;4955621;28;20027;-77
2023/06/18 12:27:50;;;;;;;5.50;3.45;;;27.20;92.40;;;;;;4956179;28;20049;-75
2023/06/18 12:30:16;;;;;;;10.65;6.13;;;27.10;93.10;;;;;;4955784;28;20038;-74
2023/06/18 12:33:00;;;;;;;5.15;3.60;;;27.20;92.80;;;;;;4955180;28;20434;-78
2023/06/18 12:35:26;;;;;;;7.15;3.20;;;27.10;91.70;;;;;;4955911;28;20544;-79
2023/06/18 12:37:51;;;;;;;5.00;3.45;;;27.20;93.10;;;;;;4955362;28;20023;-80
2023/06/18 12:40:25;;;;;;;5.43;3.15;;;27.20;92.70;;;;;;4953708;28;20082;-78
2023/06/18 12:42:51;;;;;;;21.48;15.73;;;27.40;94.20;;;;;;4944895;28;20067;-76
2023/06/18 12:45:25;;;;;;;5.15;3.25;;;27.40;93.10;;;;;;4947872;28;20032;-78
2023/06/18 12:47:51;;;;;;;6.90;3.67;;;27.40;92.80;;;;;;4935022;29;20032;-80